createdAt,value
2019-06-01T00:01:44.633Z,29.13
2019-06-01T00:04:12.604Z,28.10
2019-06-01T00:06:40.739Z,27.57
2019-06-01T00:09:08.887Z,27.73
2019-06-01T00:11:36.240Z,30.73
2019-06-01T00:14:05.383Z,28.83
2019-06-01T00:16:32.651Z,30.13
2019-06-01T00:18:59.926Z,30.77
2019-06-01T00:21:27.175Z,30.90
2019-06-01T00:23:54.426Z,30.40
2019-06-01T00:26:21.770Z,30.83
2019-06-01T00:28:50.023Z,29.63
2019-06-01T00:31:17.372Z,31.33
2019-06-01T00:33:45.467Z,32.67
2019-06-01T00:36:12.874Z,33.73
2019-06-01T00:38:41.500Z,35.57
2019-06-01T00:41:08.987Z,32.83
2019-06-01T00:43:36.313Z,33.33
2019-06-01T00:46:03.671Z,31.00
2019-06-01T00:48:30.927Z,27.90
2019-06-01T00:50:58.184Z,30.73
2019-06-01T00:53:25.532Z,30.63
2019-06-01T00:55:53.638Z,30.40
2019-06-01T00:58:21.026Z,31.90
2019-06-01T01:00:49.444Z,32.53
2019-06-01T01:03:17.562Z,33.20
2019-06-01T01:05:44.796Z,30.93
2019-06-01T01:08:12.036Z,30.80
2019-06-01T01:10:39.287Z,29.47
2019-06-01T01:13:13.355Z,29.53
2019-06-01T01:15:40.611Z,29.13
2019-06-01T01:18:07.982Z,27.87
2019-06-01T01:20:35.655Z,26.07
2019-06-01T01:23:03.023Z,26.47
2019-06-01T01:25:30.290Z,27.17
2019-06-01T01:27:57.513Z,25.17
2019-06-01T01:30:24.782Z,25.90
2019-06-01T01:32:53.330Z,25.67
2019-06-01T01:35:20.847Z,26.50
2019-06-01T01:37:48.083Z,27.10
2019-06-01T01:40:15.377Z,29.93
2019-06-01T01:42:42.691Z,29.43
2019-06-01T01:45:10.213Z,27.80
2019-06-01T01:47:37.479Z,30.97
2019-06-01T01:50:05.016Z,33.33
2019-06-01T01:52:32.317Z,34.10
2019-06-01T01:54:59.551Z,34.63
2019-06-01T01:57:26.803Z,37.63
2019-06-01T01:59:55.300Z,37.33
2019-06-01T02:02:22.629Z,36.10
2019-06-01T02:04:49.855Z,39.63
2019-06-01T02:07:17.082Z,40.20
2019-06-01T02:09:44.320Z,39.83
2019-06-01T02:12:11.540Z,39.47
2019-06-01T02:14:38.811Z,40.47
2019-06-01T02:17:06.025Z,39.57
2019-06-01T02:19:36.444Z,40.90
2019-06-01T02:22:03.687Z,39.80
2019-06-01T02:24:31.100Z,36.40
2019-06-01T02:26:59.321Z,39.67
2019-06-01T02:29:26.676Z,38.90
2019-06-01T02:31:54.675Z,38.27
2019-06-01T02:34:22.094Z,37.93
2019-06-01T02:36:49.328Z,36.53
2019-06-01T02:39:17.071Z,36.10
2019-06-01T02:41:44.485Z,34.70
2019-06-01T02:44:11.715Z,35.27
2019-06-01T02:46:38.932Z,34.10
2019-06-01T02:49:06.472Z,32.70
2019-06-01T02:51:33.819Z,33.93
2019-06-01T02:54:01.698Z,35.10
2019-06-01T02:56:30.128Z,34.60
2019-06-01T02:58:58.265Z,34.67
2019-06-01T03:01:33.551Z,35.13
2019-06-01T03:04:05.224Z,35.27
2019-06-01T03:06:33.108Z,34.33
2019-06-01T03:09:01.856Z,36.47
2019-06-01T03:11:33.792Z,32.00
2019-06-01T03:14:04.501Z,34.40
2019-06-01T03:16:32.482Z,32.27
2019-06-01T03:19:01.909Z,29.80
2019-06-01T03:21:31.132Z,29.40
2019-06-01T03:24:05.985Z,30.10
2019-06-01T03:26:39.425Z,29.10
2019-06-01T03:29:09.508Z,29.07
2019-06-01T03:31:36.854Z,30.77
2019-06-01T03:34:06.392Z,30.53
2019-06-01T03:36:33.228Z,30.23
2019-06-01T03:39:00.477Z,30.67
2019-06-01T03:41:27.753Z,28.33
2019-06-01T03:43:54.989Z,27.43
2019-06-01T03:46:22.223Z,26.60
2019-06-01T03:48:49.556Z,25.80
2019-06-01T03:51:16.803Z,24.47
2019-06-01T03:53:44.032Z,24.07
2019-06-01T03:56:11.267Z,24.87
2019-06-01T03:58:38.492Z,23.30
2019-06-01T04:01:07.058Z,22.70
2019-06-01T04:03:34.533Z,23.43
2019-06-01T04:06:01.784Z,22.37
2019-06-01T04:08:30.012Z,23.47
2019-06-01T04:10:57.278Z,24.07
2019-06-01T04:13:24.498Z,24.23
2019-06-01T04:15:51.722Z,24.73
2019-06-01T04:18:18.991Z,24.90
2019-06-01T04:20:46.235Z,24.73
2019-06-01T04:23:13.488Z,25.27
2019-06-01T04:25:40.740Z,25.83
2019-06-01T04:28:12.580Z,25.47
2019-06-01T04:30:39.994Z,25.93
2019-06-01T04:33:08.966Z,24.73
2019-06-01T04:35:37.312Z,24.30
2019-06-01T04:38:05.543Z,22.93
2019-06-01T04:40:32.827Z,21.97
2019-06-01T04:43:00.050Z,21.80
2019-06-01T04:45:27.272Z,23.27
2019-06-01T04:47:54.522Z,22.37
2019-06-01T04:50:21.808Z,22.53
2019-06-01T04:52:49.048Z,21.57
2019-06-01T04:55:16.285Z,21.23
2019-06-01T04:57:43.541Z,19.40
2019-06-01T05:00:24.193Z,18.20
2019-06-01T05:02:41.246Z,17.23
2019-06-01T05:05:09.400Z,16.87
2019-06-01T05:07:36.919Z,16.37
2019-06-01T05:10:05.159Z,16.47
2019-06-01T05:12:32.447Z,15.47
2019-06-01T05:14:59.715Z,12.47
2019-06-01T05:17:26.957Z,12.17
2019-06-01T05:19:54.192Z,11.00
2019-06-01T05:22:21.482Z,9.27
2019-06-01T05:24:48.728Z,9.50
2019-06-01T05:27:17.227Z,8.67
2019-06-01T05:29:44.746Z,8.73
2019-06-01T05:32:12.602Z,9.20
2019-06-01T05:34:39.962Z,8.20
2019-06-01T05:37:08.411Z,8.03
2019-06-01T05:39:35.815Z,8.70
2019-06-01T05:42:03.075Z,8.77
2019-06-01T05:44:30.329Z,7.83
2019-06-01T05:46:57.701Z,7.17
2019-06-01T05:49:24.967Z,7.93
2019-06-01T05:51:52.195Z,7.50
2019-06-01T05:54:19.461Z,7.33
2019-06-01T05:56:46.706Z,7.10
2019-06-01T05:59:13.975Z,7.80
2019-06-01T06:01:41.293Z,7.07
2019-06-01T06:04:08.528Z,7.23
2019-06-01T06:06:35.784Z,6.80
2019-06-01T06:09:05.085Z,6.80
2019-06-01T06:11:32.356Z,7.13
2019-06-01T06:13:59.636Z,6.90
2019-06-01T06:16:26.910Z,6.97
2019-06-01T06:18:54.159Z,7.10
2019-06-01T06:21:22.425Z,6.73
2019-06-01T06:23:49.961Z,6.57
2019-06-01T06:26:18.670Z,6.30
2019-06-01T06:28:46.392Z,6.50
2019-06-01T06:31:14.934Z,6.40
2019-06-01T06:33:55.390Z,6.97
2019-06-01T06:36:11.531Z,6.37
2019-06-01T06:38:38.813Z,6.47
2019-06-01T06:41:06.053Z,7.33
2019-06-01T06:43:33.524Z,6.80
2019-06-01T06:46:00.877Z,7.17
2019-06-01T06:48:28.150Z,7.17
2019-06-01T06:50:55.402Z,6.83
2019-06-01T06:53:32.770Z,7.43
2019-06-01T06:55:51.918Z,7.07
2019-06-01T06:58:20.921Z,7.10
2019-06-01T07:00:48.344Z,7.43
2019-06-01T07:03:16.807Z,6.87
2019-06-01T07:05:43.916Z,7.70
2019-06-01T07:08:11.183Z,7.07
2019-06-01T07:10:38.467Z,7.57
2019-06-01T07:13:05.727Z,7.00
2019-06-01T07:15:32.983Z,7.47
2019-06-01T07:18:00.311Z,7.67
2019-06-01T07:20:27.929Z,8.60
2019-06-01T07:22:55.271Z,8.20
2019-06-01T07:25:22.514Z,7.30
2019-06-01T07:27:52.334Z,6.53
2019-06-01T07:30:20.062Z,7.17
2019-06-01T07:32:47.435Z,7.37
2019-06-01T07:35:14.700Z,7.67
2019-06-01T07:37:41.937Z,7.47
2019-06-01T07:40:13.299Z,7.97
2019-06-01T07:42:38.371Z,12.27
2019-06-01T07:45:05.670Z,30.57
2019-06-01T07:47:34.027Z,8.23
2019-06-01T07:50:01.565Z,8.13
2019-06-01T07:52:28.911Z,8.00
2019-06-01T07:54:56.156Z,7.40
2019-06-01T07:57:23.629Z,7.70
2019-06-01T07:59:50.953Z,7.63
2019-06-01T08:02:18.263Z,7.03
2019-06-01T08:04:53.208Z,7.60
2019-06-01T08:07:14.819Z,7.27
2019-06-01T08:09:43.050Z,7.20
2019-06-01T08:12:10.323Z,7.87
2019-06-01T08:14:37.608Z,6.60
2019-06-01T08:17:04.831Z,6.83
2019-06-01T08:19:35.468Z,7.27
2019-06-01T08:22:02.892Z,6.97
2019-06-01T08:24:30.335Z,7.70
2019-06-01T08:26:57.598Z,7.13
2019-06-01T08:29:24.860Z,7.23
2019-06-01T08:31:55.586Z,6.80
2019-06-01T08:34:21.275Z,6.70
2019-06-01T08:36:48.548Z,6.57
2019-06-01T08:39:15.808Z,6.23
2019-06-01T08:41:43.165Z,6.23
2019-06-01T08:44:10.470Z,6.03
2019-06-01T08:46:37.717Z,5.97
2019-06-01T08:49:04.957Z,6.00
2019-06-01T08:51:32.217Z,5.53
2019-06-01T08:53:59.475Z,5.00
2019-06-01T08:56:28.142Z,4.80
2019-06-01T08:58:55.515Z,4.70
2019-06-01T09:01:22.779Z,4.10
2019-06-01T09:03:50.032Z,4.70
2019-06-01T09:06:17.286Z,4.83
2019-06-01T09:08:44.539Z,4.80
2019-06-01T09:11:11.827Z,3.97
2019-06-01T09:13:39.087Z,4.23
2019-06-01T09:16:06.373Z,4.70
2019-06-01T09:18:33.788Z,4.83
2019-06-01T09:21:00.996Z,3.90
2019-06-01T09:23:29.542Z,4.00
2019-06-01T09:25:56.855Z,4.10
2019-06-01T09:28:24.147Z,4.40
2019-06-01T09:30:51.406Z,4.40
2019-06-01T09:33:18.669Z,4.37
2019-06-01T09:35:55.537Z,4.67
2019-06-01T09:38:15.201Z,4.13
2019-06-01T09:40:42.518Z,3.40
2019-06-01T09:43:09.851Z,3.77
2019-06-01T09:45:38.265Z,3.27
2019-06-01T09:48:05.872Z,3.50
2019-06-01T09:50:33.471Z,3.60
2019-06-01T09:53:00.785Z,4.03
2019-06-01T09:55:30.388Z,3.87
2019-06-01T09:57:57.352Z,3.67
2019-06-01T10:00:24.699Z,3.63
2019-06-01T10:02:52.100Z,3.53
2019-06-01T10:05:19.333Z,3.40
2019-06-01T10:07:46.591Z,3.23
2019-06-01T10:10:13.976Z,4.17
2019-06-01T10:12:42.265Z,3.70
2019-06-01T10:15:10.026Z,4.07
2019-06-01T10:17:37.298Z,3.63
2019-06-01T10:20:04.683Z,3.37
2019-06-01T10:22:33.123Z,3.90
2019-06-01T10:25:00.474Z,4.23
2019-06-01T10:27:27.732Z,4.00
2019-06-01T10:29:55.105Z,3.57
2019-06-01T10:32:22.351Z,3.40
2019-06-01T10:34:49.648Z,3.67
2019-06-01T10:37:17.050Z,3.80
2019-06-01T10:39:44.270Z,4.00
2019-06-01T10:42:11.525Z,4.30
2019-06-01T10:44:44.046Z,3.63
2019-06-01T10:47:08.067Z,3.87
2019-06-01T10:49:35.923Z,3.80
2019-06-01T10:52:03.374Z,3.80
2019-06-01T10:54:32.762Z,3.70
2019-06-01T10:56:59.813Z,3.20
2019-06-01T10:59:27.544Z,4.20
2019-06-01T11:01:55.205Z,3.50
2019-06-01T11:04:22.950Z,4.03
2019-06-01T11:06:51.189Z,4.10
2019-06-01T11:09:19.565Z,3.30
2019-06-01T11:11:46.785Z,3.13
2019-06-01T11:14:14.104Z,3.33
2019-06-01T11:16:41.891Z,3.10
2019-06-01T11:19:09.228Z,3.73
2019-06-01T11:21:37.441Z,4.00
2019-06-01T11:24:05.797Z,3.83
2019-06-01T11:26:33.344Z,3.90
2019-06-01T11:29:00.613Z,3.53
2019-06-01T11:31:27.883Z,3.30
2019-06-01T11:33:55.155Z,3.50
2019-06-01T11:36:22.396Z,2.67
2019-06-01T11:38:49.656Z,2.87
2019-06-01T11:41:18.659Z,3.10
2019-06-01T11:43:49.123Z,3.37
2019-06-01T11:46:16.403Z,3.20
2019-06-01T11:48:45.249Z,3.27
2019-06-01T11:51:12.716Z,2.80
2019-06-01T11:53:41.510Z,3.33
2019-06-01T11:56:08.944Z,3.50
2019-06-01T11:58:37.162Z,2.97
2019-06-01T12:01:04.554Z,3.00
2019-06-01T12:03:31.918Z,3.13
2019-06-01T12:05:59.163Z,3.10
2019-06-01T12:08:26.457Z,2.80
2019-06-01T12:10:53.683Z,3.70
2019-06-01T12:13:20.925Z,3.03
2019-06-01T12:15:48.216Z,3.23
2019-06-01T12:18:15.443Z,3.13
2019-06-01T12:20:42.911Z,2.67
2019-06-01T12:23:10.190Z,2.93
2019-06-01T12:25:38.215Z,3.20
2019-06-01T12:28:05.595Z,3.40
2019-06-01T12:30:32.916Z,3.20
2019-06-01T12:33:00.192Z,3.00
2019-06-01T12:35:27.452Z,3.20
2019-06-01T12:38:05.379Z,3.43
2019-06-01T12:40:24.006Z,2.70
2019-06-01T12:42:51.956Z,3.50
2019-06-01T12:45:22.635Z,3.42
2019-06-01T12:47:53.586Z,3.40
2019-06-01T12:50:17.660Z,2.95
2019-06-01T12:52:44.874Z,3.60
2019-06-01T12:55:12.156Z,2.92
2019-06-01T12:57:40.709Z,3.37
2019-06-01T13:00:09.284Z,2.50
2019-06-01T13:02:36.563Z,3.12
2019-06-01T13:05:04.785Z,3.20
2019-06-01T13:07:32.058Z,2.87
2019-06-01T13:09:59.441Z,2.30
2019-06-01T13:12:26.838Z,2.40
2019-06-01T13:14:54.182Z,2.62
2019-06-01T13:17:21.436Z,2.77
2019-06-01T13:19:49.561Z,2.70
2019-06-01T13:22:17.050Z,2.62
2019-06-01T13:24:45.637Z,2.58
2019-06-01T13:27:13.208Z,2.72
2019-06-01T13:29:41.617Z,2.47
2019-06-01T13:32:09.109Z,2.40
2019-06-01T13:34:36.377Z,2.22
2019-06-01T13:37:03.703Z,2.72
2019-06-01T13:39:32.010Z,2.30
2019-06-01T13:41:59.488Z,2.40
2019-06-01T13:44:26.809Z,2.40
2019-06-01T13:46:54.221Z,2.30
2019-06-01T13:49:23.498Z,2.60
2019-06-01T13:51:50.794Z,2.40
2019-06-01T13:54:18.106Z,2.47
2019-06-01T13:56:46.449Z,2.12
2019-06-01T13:59:14.074Z,2.30
2019-06-01T14:01:41.410Z,2.42
2019-06-01T14:04:08.677Z,2.58
2019-06-01T14:06:35.979Z,2.30
2019-06-01T14:09:05.006Z,1.72
2019-06-01T14:11:32.288Z,2.08
2019-06-01T14:13:59.549Z,2.17
2019-06-01T14:16:26.826Z,2.02
2019-06-01T14:18:54.285Z,2.20
2019-06-01T14:21:21.564Z,1.95
2019-06-01T14:23:50.023Z,2.15
2019-06-01T14:26:17.427Z,2.15
2019-06-01T14:28:46.118Z,2.40
2019-06-01T14:31:13.534Z,2.22
2019-06-01T14:33:40.809Z,2.10
2019-06-01T14:36:09.053Z,2.20
2019-06-01T14:38:46.547Z,2.05
2019-06-01T14:41:05.541Z,2.15
2019-06-01T14:43:32.901Z,2.05
2019-06-01T14:46:00.159Z,2.02
2019-06-01T14:48:27.495Z,2.27
2019-06-01T14:50:55.822Z,1.87
2019-06-01T14:53:23.351Z,2.17
2019-06-01T14:55:51.717Z,2.33
2019-06-01T14:58:20.554Z,1.95
2019-06-01T15:00:48.425Z,1.95
2019-06-01T15:03:15.723Z,2.00
2019-06-01T15:05:44.041Z,1.95
2019-06-01T15:08:11.332Z,1.52
2019-06-01T15:10:38.607Z,1.77
2019-06-01T15:13:05.888Z,1.60
2019-06-01T15:15:33.169Z,1.90
2019-06-01T15:18:04.827Z,1.75
2019-06-01T15:20:29.914Z,1.87
2019-06-01T15:22:58.412Z,1.82
2019-06-01T15:25:25.747Z,1.65
2019-06-01T15:27:53.010Z,2.17
2019-06-01T15:30:20.264Z,2.15
2019-06-01T15:32:47.505Z,1.70
2019-06-01T15:35:15.206Z,1.90
2019-06-01T15:37:42.491Z,1.90
2019-06-01T15:40:11.170Z,1.80
2019-06-01T15:42:38.424Z,2.20
2019-06-01T15:45:05.865Z,2.10
2019-06-01T15:47:33.142Z,2.27
2019-06-01T15:50:00.416Z,2.57
2019-06-01T15:52:27.730Z,2.90
2019-06-01T15:54:56.164Z,2.50
2019-06-01T15:57:23.509Z,2.17
2019-06-01T15:59:50.776Z,2.43
2019-06-01T16:02:18.020Z,2.10
2019-06-01T16:04:45.390Z,2.10
2019-06-01T16:07:13.652Z,2.47
2019-06-01T16:09:43.137Z,2.20
2019-06-01T16:12:10.201Z,2.35
2019-06-01T16:14:37.520Z,2.33
2019-06-01T16:17:04.896Z,2.27
2019-06-01T16:19:33.285Z,2.40
2019-06-01T16:22:00.571Z,2.20
2019-06-01T16:24:27.846Z,2.60
2019-06-01T16:26:56.284Z,2.20
2019-06-01T16:29:23.706Z,2.10
2019-06-01T16:31:50.980Z,2.08
2019-06-01T16:34:18.238Z,2.08
2019-06-01T16:36:45.531Z,2.27
2019-06-01T16:39:12.810Z,2.15
2019-06-01T16:41:40.227Z,2.47
2019-06-01T16:44:07.596Z,2.10
2019-06-01T16:46:34.861Z,2.53
2019-06-01T16:49:02.134Z,3.60
2019-06-01T16:51:49.429Z,2.47
2019-06-01T16:54:16.749Z,2.73
2019-06-01T16:56:44.000Z,2.53
2019-06-01T16:59:11.505Z,3.27
2019-06-01T17:01:39.411Z,2.73
2019-06-01T17:04:07.352Z,2.67
2019-06-01T17:06:36.748Z,2.93
2019-06-01T17:09:07.033Z,3.03
2019-06-01T17:11:34.541Z,2.70
2019-06-01T17:14:02.939Z,3.17
2019-06-01T17:16:30.314Z,2.90
2019-06-01T17:18:58.896Z,3.40
2019-06-01T17:21:26.282Z,3.13
2019-06-01T17:23:54.782Z,2.97
2019-06-01T17:26:22.050Z,3.00
2019-06-01T17:28:49.343Z,3.27
2019-06-01T17:31:16.568Z,2.87
2019-06-01T17:33:43.919Z,3.50
2019-06-01T17:36:11.205Z,3.30
2019-06-01T17:38:38.495Z,3.40
2019-06-01T17:41:06.368Z,3.20
2019-06-01T17:43:33.744Z,3.20
2019-06-01T17:46:01.006Z,3.33
2019-06-01T17:48:28.335Z,3.53
2019-06-01T17:50:55.714Z,4.30
2019-06-01T17:53:23.045Z,3.30
2019-06-01T17:55:50.432Z,3.70
2019-06-01T17:58:17.882Z,3.80
2019-06-01T18:00:45.111Z,4.13
2019-06-01T18:03:12.465Z,3.70
2019-06-01T18:05:39.752Z,3.50
2019-06-01T18:08:08.149Z,3.43
2019-06-01T18:10:50.207Z,3.70
2019-06-01T18:13:06.336Z,3.60
2019-06-01T18:15:33.758Z,4.03
2019-06-01T18:18:02.295Z,4.10
2019-06-01T18:20:29.734Z,3.80
2019-06-01T18:22:56.990Z,4.00
2019-06-01T18:25:25.591Z,3.70
2019-06-01T18:27:53.069Z,4.27
2019-06-01T18:30:21.072Z,3.77
2019-06-01T18:32:48.443Z,3.93
2019-06-01T18:35:19.474Z,4.00
2019-06-01T18:37:45.963Z,3.93
2019-06-01T18:40:13.940Z,3.93
2019-06-01T18:42:41.562Z,4.27
2019-06-01T18:45:09.760Z,4.10
2019-06-01T18:47:37.300Z,4.10
2019-06-01T18:50:05.821Z,4.40
2019-06-01T18:52:33.319Z,5.07
2019-06-01T18:55:00.553Z,5.60
2019-06-01T18:57:28.266Z,6.00
2019-06-01T18:59:55.622Z,5.60
2019-06-01T19:02:22.947Z,7.03
2019-06-01T19:04:50.301Z,5.43
2019-06-01T19:07:17.542Z,5.87
2019-06-01T19:09:44.816Z,6.43
2019-06-01T19:12:12.117Z,5.97
2019-06-01T19:14:39.360Z,6.13
2019-06-01T19:17:06.623Z,6.10
2019-06-01T19:19:33.904Z,6.37
2019-06-01T19:22:01.204Z,6.17
2019-06-01T19:24:28.434Z,6.60
2019-06-01T19:26:55.752Z,6.53
2019-06-01T19:29:23.144Z,6.63
2019-06-01T19:31:50.464Z,6.63
2019-06-01T19:34:17.825Z,6.50
2019-06-01T19:36:45.899Z,6.77
2019-06-01T19:39:13.414Z,6.90
2019-06-01T19:41:44.875Z,6.93
2019-06-01T19:44:10.099Z,6.93
2019-06-01T19:46:37.487Z,7.20
2019-06-01T19:49:04.951Z,6.97
2019-06-01T19:51:32.216Z,6.57
2019-06-01T19:53:59.522Z,7.20
2019-06-01T19:56:27.182Z,6.90
2019-06-01T19:58:54.582Z,7.40
2019-06-01T20:01:22.668Z,7.70
2019-06-01T20:03:50.172Z,7.70
2019-06-01T20:06:17.445Z,7.20
2019-06-01T20:08:44.819Z,7.23
2019-06-01T20:11:13.145Z,7.07
2019-06-01T20:13:40.561Z,7.37
2019-06-01T20:16:08.012Z,7.10
2019-06-01T20:18:35.308Z,7.40
2019-06-01T20:21:02.558Z,6.93
2019-06-01T20:23:30.942Z,7.43
2019-06-01T20:25:58.178Z,7.37
2019-06-01T20:28:25.583Z,8.60
2019-06-01T20:30:52.978Z,7.50
2019-06-01T20:33:20.564Z,7.90
2019-06-01T20:35:47.973Z,8.53
2019-06-01T20:38:16.608Z,8.07
2019-06-01T20:40:45.067Z,7.80
2019-06-01T20:43:12.448Z,8.17
2019-06-01T20:45:39.899Z,8.00
2019-06-01T20:48:07.272Z,8.40
2019-06-01T20:50:35.559Z,8.43
2019-06-01T20:53:02.936Z,8.90
2019-06-01T20:55:30.229Z,8.43
2019-06-01T20:57:57.647Z,8.67
2019-06-01T21:00:25.730Z,8.80
2019-06-01T21:02:52.966Z,8.67
2019-06-01T21:05:20.337Z,8.53
2019-06-01T21:07:47.625Z,9.50
2019-06-01T21:10:16.140Z,9.53
2019-06-01T21:12:45.715Z,8.90
2019-06-01T21:15:15.080Z,8.43
2019-06-01T21:17:42.708Z,8.50
2019-06-01T21:20:10.642Z,9.43
2019-06-01T21:22:38.050Z,8.77
2019-06-01T21:25:05.548Z,9.27
2019-06-01T21:27:32.974Z,9.73
2019-06-01T21:30:00.379Z,10.10
2019-06-01T21:32:27.839Z,10.20
2019-06-01T21:34:55.169Z,10.10
2019-06-01T21:37:23.484Z,9.60
2019-06-01T21:39:50.873Z,10.60
2019-06-01T21:42:19.572Z,10.27
2019-06-01T21:44:46.994Z,9.53
2019-06-01T21:47:15.549Z,9.33
2019-06-01T21:49:42.907Z,10.00
2019-06-01T21:52:10.193Z,9.57
2019-06-01T21:54:37.454Z,9.53
2019-06-01T21:57:04.699Z,9.90
2019-06-01T21:59:32.055Z,9.17
2019-06-01T22:01:59.380Z,9.33
2019-06-01T22:04:27.266Z,10.07
2019-06-01T22:06:54.593Z,9.60
2019-06-01T22:09:23.250Z,10.60
2019-06-01T22:11:50.829Z,10.77
2019-06-01T22:14:19.326Z,10.40
2019-06-01T22:16:46.672Z,10.77
2019-06-01T22:19:13.917Z,11.27
2019-06-01T22:21:41.166Z,11.27
2019-06-01T22:24:08.560Z,11.30
2019-06-01T22:26:35.839Z,9.60
2019-06-01T22:29:03.240Z,11.67
2019-06-01T22:31:30.534Z,12.53
2019-06-01T22:33:57.916Z,12.23
2019-06-01T22:36:25.217Z,14.27
2019-06-01T22:38:52.464Z,12.13
2019-06-01T22:41:19.970Z,15.17
2019-06-01T22:43:47.340Z,15.50
2019-06-01T22:46:14.593Z,16.83
2019-06-01T22:48:41.834Z,18.77
2019-06-01T22:51:09.090Z,19.80
2019-06-01T22:53:36.364Z,19.57
2019-06-01T22:56:03.650Z,20.60
2019-06-01T22:58:31.607Z,19.00
2019-06-01T23:00:59.442Z,16.70
2019-06-01T23:03:28.112Z,18.90
2019-06-01T23:05:55.629Z,17.40
2019-06-01T23:08:25.355Z,18.33
2019-06-01T23:10:52.894Z,18.53
2019-06-01T23:13:21.239Z,18.17
2019-06-01T23:15:48.804Z,16.40
2019-06-01T23:18:16.152Z,15.73
2019-06-01T23:20:43.817Z,15.63
2019-06-01T23:23:11.121Z,18.03
2019-06-01T23:25:38.535Z,17.50
2019-06-01T23:28:05.767Z,18.93
2019-06-01T23:30:33.072Z,17.80
2019-06-01T23:33:00.301Z,19.13
2019-06-01T23:35:28.585Z,18.87
2019-06-01T23:37:55.919Z,18.60
2019-06-01T23:40:24.350Z,18.70
2019-06-01T23:42:51.678Z,19.67
2019-06-01T23:45:18.937Z,19.93
2019-06-01T23:47:46.256Z,21.20
2019-06-01T23:50:13.501Z,18.03
2019-06-01T23:52:40.798Z,18.57
2019-06-01T23:55:08.141Z,20.17
2019-06-01T23:57:35.540Z,20.97
